createdAt,value
2019-05-26T00:04:54.788Z,11.6
2019-05-26T00:10:27.645Z,11.5
2019-05-26T00:16:00.453Z,11.5
2019-05-26T00:21:33.324Z,11.3
2019-05-26T00:27:06.044Z,10.9
2019-05-26T00:32:38.835Z,11
2019-05-26T00:38:11.569Z,11
2019-05-26T00:43:44.304Z,10.9
2019-05-26T00:49:17.045Z,11
2019-05-26T00:54:49.800Z,10.9
2019-05-26T01:00:22.478Z,10.9
2019-05-26T01:05:55.080Z,10.6
2019-05-26T01:11:22.151Z,10.7
2019-05-26T01:16:55.875Z,10.8
2019-05-26T01:22:27.531Z,10.9
2019-05-26T01:28:00.314Z,11
2019-05-26T01:33:33.023Z,11
2019-05-26T01:39:05.863Z,11
2019-05-26T01:44:38.613Z,11.1
2019-05-26T01:50:11.429Z,11.1
2019-05-26T01:55:44.128Z,11.2
2019-05-26T02:01:17.043Z,11.1
2019-05-26T02:06:49.723Z,11
2019-05-26T02:12:22.535Z,11
2019-05-26T02:17:55.384Z,11.1
2019-05-26T02:23:28.159Z,11
2019-05-26T02:29:00.925Z,10.9
2019-05-26T02:34:33.759Z,10.9
2019-05-26T02:40:06.570Z,10.9
2019-05-26T02:45:39.391Z,11
2019-05-26T02:51:12.147Z,10.9
2019-05-26T02:56:44.988Z,11
2019-05-26T03:02:17.828Z,11.1
2019-05-26T03:07:50.504Z,11.1
2019-05-26T03:13:23.305Z,11
2019-05-26T03:18:56.090Z,10.9
2019-05-26T03:24:28.917Z,10.9
2019-05-26T03:30:01.781Z,10.9
2019-05-26T03:35:34.471Z,10.9
2019-05-26T03:41:07.216Z,10.8
2019-05-26T03:46:40.031Z,10.7
2019-05-26T03:52:12.762Z,10.6
2019-05-26T03:57:45.476Z,10.6
2019-05-26T04:03:18.241Z,10.5
2019-05-26T04:08:51.816Z,10.5
2019-05-26T04:14:23.598Z,10.6
2019-05-26T04:19:56.298Z,10.6
2019-05-26T04:25:28.951Z,10.6
2019-05-26T04:31:01.595Z,10.4
2019-05-26T04:36:34.293Z,10.4
2019-05-26T04:42:06.985Z,10.3
2019-05-26T04:47:39.635Z,10.7
2019-05-26T04:53:12.370Z,10.5
2019-05-26T04:58:45.193Z,10.6
2019-05-26T05:04:18.026Z,10.7
2019-05-26T05:09:50.792Z,11
2019-05-26T05:15:23.696Z,11.2
2019-05-26T05:20:56.617Z,11.4
2019-05-26T05:26:29.615Z,11.5
2019-05-26T05:32:02.607Z,11.2
2019-05-26T05:37:35.511Z,11.4
2019-05-26T05:43:08.550Z,11.6
2019-05-26T05:48:41.494Z,12
2019-05-26T05:54:14.624Z,11.9
2019-05-26T05:59:47.765Z,12.5
2019-05-26T06:05:20.985Z,13.5
2019-05-26T06:10:54.429Z,13.2
2019-05-26T06:16:27.935Z,13.2
2019-05-26T06:22:01.515Z,13.8
2019-05-26T06:27:35.049Z,14.3
2019-05-26T06:33:09.368Z,14.1
2019-05-26T06:38:43.328Z,14.4
2019-05-26T06:44:17.454Z,14.1
2019-05-26T06:49:50.630Z,13.8
2019-05-26T06:55:25.136Z,13.5
2019-05-26T07:00:59.293Z,13.7
2019-05-26T07:06:33.063Z,14.4
2019-05-26T07:12:06.961Z,13.9
2019-05-26T07:17:41.000Z,14.3
2019-05-26T07:23:15.219Z,14.5
2019-05-26T07:28:50.118Z,14.1
2019-05-26T07:34:25.041Z,14.1
2019-05-26T07:39:59.910Z,14.3
2019-05-26T07:45:34.759Z,13.7
2019-05-26T07:51:09.402Z,15
2019-05-26T07:56:43.855Z,14.8
2019-05-26T08:02:19.026Z,14.8
2019-05-26T08:07:53.844Z,14.7
2019-05-26T08:13:28.842Z,14.9
2019-05-26T08:19:03.976Z,14.8
2019-05-26T08:24:39.213Z,15.1
2019-05-26T08:30:14.296Z,14.7
2019-05-26T08:35:49.057Z,15.2
2019-05-26T08:41:24.326Z,15.1
2019-05-26T08:46:59.444Z,15.1
2019-05-26T08:52:34.389Z,15.3
2019-05-26T08:58:09.767Z,15.6
2019-05-26T09:03:44.655Z,16.5
2019-05-26T09:09:19.973Z,16.3
2019-05-26T09:14:55.531Z,15.6
2019-05-26T09:20:30.594Z,17.1
2019-05-26T09:26:06.258Z,16.4
2019-05-26T09:31:41.719Z,16.2
2019-05-26T09:37:17.381Z,16.7
2019-05-26T09:42:52.836Z,17
2019-05-26T09:48:28.604Z,16.8
2019-05-26T09:54:04.190Z,16.7
2019-05-26T09:59:39.939Z,17.2
2019-05-26T10:05:15.804Z,16.9
2019-05-26T10:10:51.252Z,17.3
2019-05-26T10:16:27.009Z,17.2
2019-05-26T10:22:02.763Z,17.6
2019-05-26T10:27:38.585Z,17.7
2019-05-26T10:33:14.280Z,17.5
2019-05-26T10:38:50.103Z,18.1
2019-05-26T10:44:25.901Z,17.7
2019-05-26T10:50:01.663Z,17.6
2019-05-26T10:55:37.411Z,17.8
2019-05-26T11:01:13.095Z,18.4
2019-05-26T11:06:49.031Z,19.3
2019-05-26T11:12:25.071Z,18.1
2019-05-26T11:18:01.102Z,18.5
2019-05-26T11:23:37.045Z,18.8
2019-05-26T11:29:13.069Z,18.9
2019-05-26T11:35:00.919Z,19.2
2019-05-26T11:40:25.366Z,19.1
2019-05-26T11:46:01.483Z,19.2
2019-05-26T11:51:37.776Z,20.2
2019-05-26T11:57:14.121Z,19
2019-05-26T12:02:50.279Z,20.1
2019-05-26T12:08:26.394Z,19.9
2019-05-26T12:14:02.925Z,20.3
2019-05-26T12:19:39.365Z,19.3
2019-05-26T12:25:19.805Z,19
2019-05-26T12:30:55.391Z,18.6
2019-05-26T12:36:30.815Z,18.7
2019-05-26T12:42:06.103Z,18.8
2019-05-26T12:47:41.314Z,19.1
2019-05-26T12:53:16.593Z,19
2019-05-26T12:58:51.767Z,19
2019-05-26T13:04:27.026Z,18.9
2019-05-26T13:10:02.233Z,18.4
2019-05-26T13:15:37.246Z,18.3
2019-05-26T13:21:12.291Z,18.4
2019-05-26T13:26:47.212Z,18.4
2019-05-26T13:32:22.194Z,18.3
2019-05-26T13:37:57.143Z,18.3
2019-05-26T13:43:32.019Z,18.6
2019-05-26T13:49:06.946Z,19
2019-05-26T13:54:41.998Z,18.8
2019-05-26T14:00:17.070Z,18.7
2019-05-26T14:05:52.024Z,19.1
2019-05-26T14:11:27.155Z,19.2
2019-05-26T14:17:02.289Z,19.1
2019-05-26T14:22:36.701Z,19.9
2019-05-26T14:28:11.243Z,19.7
2019-05-26T14:33:46.058Z,20.7
2019-05-26T14:39:22.051Z,21.1
2019-05-26T14:44:57.681Z,21.6
2019-05-26T14:50:33.559Z,21.2
2019-05-26T14:56:09.745Z,20.6
2019-05-26T15:01:46.708Z,20.7
2019-05-26T15:07:23.138Z,20.2
2019-05-26T15:12:59.652Z,20.2
2019-05-26T15:18:35.604Z,20.1
2019-05-26T15:24:11.471Z,19.9
2019-05-26T15:29:46.433Z,19.9
2019-05-26T15:35:21.190Z,19.8
2019-05-26T15:40:55.855Z,20.4
2019-05-26T15:46:30.511Z,20.5
2019-05-26T15:52:05.332Z,20.1
2019-05-26T15:57:40.056Z,20.7
2019-05-26T16:03:14.878Z,20.4
2019-05-26T16:08:49.590Z,19.8
2019-05-26T16:14:25.088Z,19.5
2019-05-26T16:20:00.550Z,19.3
2019-05-26T16:25:35.834Z,19.6
2019-05-26T16:31:12.230Z,19.3
2019-05-26T16:36:46.742Z,20
2019-05-26T16:42:22.513Z,19.8
2019-05-26T16:47:58.370Z,20
2019-05-26T16:53:34.131Z,19.3
2019-05-26T16:59:09.787Z,19.3
2019-05-26T17:04:45.342Z,19
2019-05-26T17:10:20.736Z,18.7
2019-05-26T17:15:55.874Z,18.9
2019-05-26T17:21:30.722Z,19.3
2019-05-26T17:27:05.272Z,19.3
2019-05-26T17:32:39.822Z,19.2
2019-05-26T17:38:14.263Z,18.8
2019-05-26T17:43:48.552Z,18.8
2019-05-26T17:49:22.860Z,18.9
2019-05-26T17:54:57.335Z,18.9
2019-05-26T18:00:32.073Z,19
2019-05-26T18:06:06.925Z,18.8
2019-05-26T18:11:41.655Z,18.9
2019-05-26T18:17:16.282Z,18.9
2019-05-26T18:22:50.725Z,18.7
2019-05-26T18:28:24.816Z,18.4
2019-05-26T18:33:58.947Z,18.2
2019-05-26T18:39:32.902Z,18.1
2019-05-26T18:45:06.776Z,17.9
2019-05-26T18:50:40.491Z,17.5
2019-05-26T18:56:14.140Z,16.8
2019-05-26T19:01:47.772Z,16.2
2019-05-26T19:07:21.208Z,15.8
2019-05-26T19:12:54.644Z,15.6
2019-05-26T19:18:28.093Z,15.3
2019-05-26T19:24:01.414Z,15.1
2019-05-26T19:29:35.061Z,14.9
2019-05-26T19:35:07.812Z,15.3
2019-05-26T19:40:41.035Z,15.3
2019-05-26T19:46:14.231Z,14.9
2019-05-26T19:51:47.389Z,14.6
2019-05-26T19:57:20.621Z,15
2019-05-26T20:02:54.366Z,15.1
2019-05-26T20:08:28.485Z,15.5
2019-05-26T20:14:02.691Z,15.7
2019-05-26T20:19:36.829Z,15.9
2019-05-26T20:25:10.968Z,16.3
2019-05-26T20:30:45.423Z,16
2019-05-26T20:36:19.270Z,16.1
2019-05-26T20:41:53.529Z,15.5
2019-05-26T20:47:27.713Z,15.9
2019-05-26T20:53:01.868Z,15.4
2019-05-26T20:58:35.726Z,14.3
2019-05-26T21:04:09.254Z,15.1
2019-05-26T21:09:43.208Z,15.1
2019-05-26T21:15:17.145Z,15
2019-05-26T21:20:50.295Z,14.9
2019-05-26T21:26:23.378Z,15.1
2019-05-26T21:31:57.155Z,14.8
2019-05-26T21:37:31.071Z,14.9
2019-05-26T21:43:05.018Z,14.4
2019-05-26T21:48:38.869Z,14.3
2019-05-26T21:54:12.376Z,14.3
2019-05-26T21:59:45.472Z,14.2
2019-05-26T22:05:18.442Z,14.6
2019-05-26T22:10:51.486Z,13.9
2019-05-26T22:16:24.489Z,14
2019-05-26T22:21:57.469Z,13.6
2019-05-26T22:27:30.378Z,13.9
2019-05-26T22:33:04.095Z,13.1
2019-05-26T22:38:37.891Z,13
2019-05-26T22:44:11.633Z,13.1
2019-05-26T22:49:45.411Z,13.3
2019-05-26T22:55:19.115Z,13.4
2019-05-26T23:00:52.845Z,13.5
2019-05-26T23:06:26.613Z,13.5
2019-05-26T23:12:00.241Z,13.3
2019-05-26T23:17:33.147Z,13.2
2019-05-26T23:23:06.182Z,12.8
2019-05-26T23:28:38.993Z,12.9
2019-05-26T23:34:11.946Z,12.8
2019-05-26T23:39:44.876Z,12.6
2019-05-26T23:45:17.744Z,12.7
2019-05-26T23:50:50.607Z,12.5
2019-05-26T23:56:23.532Z,12.5
